sensor_id;sensor_type;location;lat;lon;timestamp;P1;P2;P0
33948;PMS7003;20229;49.856;19.030;2023-03-26T00:02:54;26;24;22
33948;PMS7003;20229;49.856;19.030;2023-03-26T00:08:10;23;22;20
33948;PMS7003;20229;49.856;19.030;2023-03-26T00:13:23;38;35;30
33948;PMS7003;20229;49.856;19.030;2023-03-26T00:18:38;29;28;24
33948;PMS7003;20229;49.856;19.030;2023-03-26T00:23:55;35;32;27
33948;PMS7003;20229;49.856;19.030;2023-03-26T00:29:17;29;28;23
33948;PMS7003;20229;49.856;19.030;2023-03-26T00:34:31;51;44;38
33948;PMS7003;20229;49.856;19.030;2023-03-26T00:39:47;25;24;22
33948;PMS7003;20229;49.856;19.030;2023-03-26T00:45:01;35;30;27
33948;PMS7003;20229;49.856;19.030;2023-03-26T00:50:15;29;28;24
33948;PMS7003;20229;49.856;19.030;2023-03-26T00:55:29;35;30;27
33948;PMS7003;20229;49.856;19.030;2023-03-26T01:00:48;44;38;33
33948;PMS7003;20229;49.856;19.030;2023-03-26T01:06:10;43;37;31
33948;PMS7003;20229;49.856;19.030;2023-03-26T01:11:31;20;19;17
33948;PMS7003;20229;49.856;19.030;2023-03-26T01:16:49;28;25;22
33948;PMS7003;20229;49.856;19.030;2023-03-26T01:22:13;46;39;34
33948;PMS7003;20229;49.856;19.030;2023-03-26T01:44:28;25;25;23
33948;PMS7003;20229;49.856;19.030;2023-03-26T01:49:49;45;39;33
33948;PMS7003;20229;49.856;19.030;2023-03-26T01:55:03;50;43;37
33948;PMS7003;20229;49.856;19.030;2023-03-26T02:00:24;43;37;32
33948;PMS7003;20229;49.856;19.030;2023-03-26T02:05:46;31;31;27
33948;PMS7003;20229;49.856;19.030;2023-03-26T02:11:09;47;41;35
33948;PMS7003;20229;49.856;19.030;2023-03-26T02:16:26;48;41;34
33948;PMS7003;20229;49.856;19.030;2023-03-26T02:21:40;49;41;34
33948;PMS7003;20229;49.856;19.030;2023-03-26T02:26:54;45;39;34
33948;PMS7003;20229;49.856;19.030;2023-03-26T02:32:14;33;30;25
33948;PMS7003;20229;49.856;19.030;2023-03-26T02:37:28;36;33;28
33948;PMS7003;20229;49.856;19.030;2023-03-26T02:42:45;35;32;27
33948;PMS7003;20229;49.856;19.030;2023-03-26T02:48:00;37;34;28
33948;PMS7003;20229;49.856;19.030;2023-03-26T02:53:15;29;27;23
33948;PMS7003;20229;49.856;19.030;2023-03-26T02:58:35;34;31;27
33948;PMS7003;20229;49.856;19.030;2023-03-26T03:03:49;48;41;35
33948;PMS7003;20229;49.856;19.030;2023-03-26T03:09:03;38;34;28
33948;PMS7003;20229;49.856;19.030;2023-03-26T03:14:24;48;41;35
33948;PMS7003;20229;49.856;19.030;2023-03-26T03:19:37;40;35;30
33948;PMS7003;20229;49.856;19.030;2023-03-26T03:24:51;37;34;29
33948;PMS7003;20229;49.856;19.030;2023-03-26T03:30:05;31;30;26
33948;PMS7003;20229;49.856;19.030;2023-03-26T03:35:21;38;35;31
33948;PMS7003;20229;49.856;19.030;2023-03-26T03:40:36;58;49;41
33948;PMS7003;20229;49.856;19.030;2023-03-26T03:45:56;45;41;36
33948;PMS7003;20229;49.856;19.030;2023-03-26T03:51:10;46;43;39
33948;PMS7003;20229;49.856;19.030;2023-03-26T03:56:24;49;46;41
33948;PMS7003;20229;49.856;19.030;2023-03-26T04:01:38;62;57;52
33948;PMS7003;20229;49.856;19.030;2023-03-26T04:06:58;35;32;29
33948;PMS7003;20229;49.856;19.030;2023-03-26T04:12:12;26;23;20
33948;PMS7003;20229;49.856;19.030;2023-03-26T04:17:27;10;9;8
33948;PMS7003;20229;49.856;19.030;2023-03-26T04:22:48;5;5;4
33948;PMS7003;20229;49.856;19.030;2023-03-26T04:28:02;4;4;4
33948;PMS7003;20229;49.856;19.030;2023-03-26T04:33:19;7;7;6
33948;PMS7003;20229;49.856;19.030;2023-03-26T04:38:37;10;9;8
33948;PMS7003;20229;49.856;19.030;2023-03-26T04:43:59;25;24;21
33948;PMS7003;20229;49.856;19.030;2023-03-26T04:49:14;8;8;8
33948;PMS7003;20229;49.856;19.030;2023-03-26T04:54:28;14;12;12
33948;PMS7003;20229;49.856;19.030;2023-03-26T04:59:42;37;34;29
33948;PMS7003;20229;49.856;19.030;2023-03-26T05:04:55;23;22;19
33948;PMS7003;20229;49.856;19.030;2023-03-26T05:10:15;26;25;23
33948;PMS7003;20229;49.856;19.030;2023-03-26T05:15:29;30;28;25
33948;PMS7003;20229;49.856;19.030;2023-03-26T05:20:43;45;41;35
33948;PMS7003;20229;49.856;19.030;2023-03-26T05:25:58;43;39;33
33948;PMS7003;20229;49.856;19.030;2023-03-26T05:31:12;30;28;26
33948;PMS7003;20229;49.856;19.030;2023-03-26T05:36:34;40;37;31
33948;PMS7003;20229;49.856;19.030;2023-03-26T05:41:49;43;38;32
33948;PMS7003;20229;49.856;19.030;2023-03-26T05:47:11;53;46;39
33948;PMS7003;20229;49.856;19.030;2023-03-26T05:52:25;56;48;41
33948;PMS7003;20229;49.856;19.030;2023-03-26T05:57:39;60;51;45
33948;PMS7003;20229;49.856;19.030;2023-03-26T06:02:54;58;49;41
33948;PMS7003;20229;49.856;19.030;2023-03-26T06:08:10;44;40;33
33948;PMS7003;20229;49.856;19.030;2023-03-26T06:13:24;40;36;30
33948;PMS7003;20229;49.856;19.030;2023-03-26T06:18:38;56;48;40
33948;PMS7003;20229;49.856;19.030;2023-03-26T06:23:52;54;46;39
33948;PMS7003;20229;49.856;19.030;2023-03-26T06:29:07;94;89;83
33948;PMS7003;20229;49.856;19.030;2023-03-26T06:34:21;110;102;94
33948;PMS7003;20229;49.856;19.030;2023-03-26T06:39:36;163;162;150
33948;PMS7003;20229;49.856;19.030;2023-03-26T06:44:50;133;132;124
33948;PMS7003;20229;49.856;19.030;2023-03-26T06:50:05;185;184;175
33948;PMS7003;20229;49.856;19.030;2023-03-26T06:55:22;185;184;174
33948;PMS7003;20229;49.856;19.030;2023-03-26T07:00:36;157;156;143
33948;PMS7003;20229;49.856;19.030;2023-03-26T07:05:50;107;104;98
33948;PMS7003;20229;49.856;19.030;2023-03-26T07:16:59;30;29;24
33948;PMS7003;20229;49.856;19.030;2023-03-26T07:22:15;51;45;37
33948;PMS7003;20229;49.856;19.030;2023-03-26T07:33:01;51;44;35
33948;PMS7003;20229;49.856;19.030;2023-03-26T07:39:05;59;50;43
33948;PMS7003;20229;49.856;19.030;2023-03-26T07:49:13;95;94;92
33948;PMS7003;20229;49.856;19.030;2023-03-26T07:54:33;47;41;35
33948;PMS7003;20229;49.856;19.030;2023-03-26T07:59:50;34;33;27
33948;PMS7003;20229;49.856;19.030;2023-03-26T08:16:36;39;34;28
33948;PMS7003;20229;49.856;19.030;2023-03-26T08:22:00;31;29;25
33948;PMS7003;20229;49.856;19.030;2023-03-26T08:27:22;43;37;31
33948;PMS7003;20229;49.856;19.030;2023-03-26T08:38:11;35;33;27
33948;PMS7003;20229;49.856;19.030;2023-03-26T09:31:54;38;36;30
33948;PMS7003;20229;49.856;19.030;2023-03-26T09:53:38;26;24;21
33948;PMS7003;20229;49.856;19.030;2023-03-26T09:59:03;13;13;12
33948;PMS7003;20229;49.856;19.030;2023-03-26T10:09:55;33;31;27
33948;PMS7003;20229;49.856;19.030;2023-03-26T10:21:18;48;42;36
33948;PMS7003;20229;49.856;19.030;2023-03-26T10:32:08;65;61;52
33948;PMS7003;20229;49.856;19.030;2023-03-26T10:43:09;82;74;71
33948;PMS7003;20229;49.856;19.030;2023-03-26T10:48:29;78;72;64
33948;PMS7003;20229;49.856;19.030;2023-03-26T10:59:46;80;74;68
33948;PMS7003;20229;49.856;19.030;2023-03-26T11:05:03;73;66;61
33948;PMS7003;20229;49.856;19.030;2023-03-26T11:16:01;74;68;61
33948;PMS7003;20229;49.856;19.030;2023-03-26T11:21:41;60;57;53
33948;PMS7003;20229;49.856;19.030;2023-03-26T11:26:49;98;91;87
33948;PMS7003;20229;49.856;19.030;2023-03-26T11:32:10;81;75;69
33948;PMS7003;20229;49.856;19.030;2023-03-26T11:37:38;71;66;60
33948;PMS7003;20229;49.856;19.030;2023-03-26T11:42:59;81;75;67
33948;PMS7003;20229;49.856;19.030;2023-03-26T11:54:10;95;86;78
33948;PMS7003;20229;49.856;19.030;2023-03-26T11:59:26;70;66;56
33948;PMS7003;20229;49.856;19.030;2023-03-26T12:04:49;61;57;48
33948;PMS7003;20229;49.856;19.030;2023-03-26T12:15:34;42;39;33
33948;PMS7003;20229;49.856;19.030;2023-03-26T12:26:18;47;43;38
33948;PMS7003;20229;49.856;19.030;2023-03-26T12:36:57;47;42;36
33948;PMS7003;20229;49.856;19.030;2023-03-26T12:47:41;88;81;63
33948;PMS7003;20229;49.856;19.030;2023-03-26T12:52:58;78;70;61
33948;PMS7003;20229;49.856;19.030;2023-03-26T13:15:15;90;86;77
33948;PMS7003;20229;49.856;19.030;2023-03-26T13:20:44;68;62;50
33948;PMS7003;20229;49.856;19.030;2023-03-26T13:26:10;75;66;57
33948;PMS7003;20229;49.856;19.030;2023-03-26T13:31:33;70;63;54
33948;PMS7003;20229;49.856;19.030;2023-03-26T13:37:10;81;75;61
33948;PMS7003;20229;49.856;19.030;2023-03-26T13:43:03;82;78;64
33948;PMS7003;20229;49.856;19.030;2023-03-26T13:48:23;80;75;61
33948;PMS7003;20229;49.856;19.030;2023-03-26T13:53:42;70;60;51
33948;PMS7003;20229;49.856;19.030;2023-03-26T13:59:05;69;60;54
33948;PMS7003;20229;49.856;19.030;2023-03-26T14:04:26;66;55;51
33948;PMS7003;20229;49.856;19.030;2023-03-26T14:15:19;66;56;54
33948;PMS7003;20229;49.856;19.030;2023-03-26T14:53:56;68;60;58
33948;PMS7003;20229;49.856;19.030;2023-03-26T15:21:41;68;57;55
33948;PMS7003;20229;49.856;19.030;2023-03-26T15:27:12;75;64;62
33948;PMS7003;20229;49.856;19.030;2023-03-26T15:43:30;72;60;58
33948;PMS7003;20229;49.856;19.030;2023-03-26T15:54:28;60;50;45
33948;PMS7003;20229;49.856;19.030;2023-03-26T16:22:11;50;43;35
33948;PMS7003;20229;49.856;19.030;2023-03-26T16:27:33;55;46;38
33948;PMS7003;20229;49.856;19.030;2023-03-26T16:32:50;51;43;36
33948;PMS7003;20229;49.856;19.030;2023-03-26T16:38:10;54;44;35
33948;PMS7003;20229;49.856;19.030;2023-03-26T16:43:31;56;45;34
33948;PMS7003;20229;49.856;19.030;2023-03-26T17:16:34;34;30;26
33948;PMS7003;20229;49.856;19.030;2023-03-26T17:21:55;10;10;8
33948;PMS7003;20229;49.856;19.030;2023-03-26T17:43:44;78;73;69
33948;PMS7003;20229;49.856;19.030;2023-03-26T17:59:59;143;142;139
33948;PMS7003;20229;49.856;19.030;2023-03-26T18:05:19;118;111;105
33948;PMS7003;20229;49.856;19.030;2023-03-26T18:22:03;63;53;44
33948;PMS7003;20229;49.856;19.030;2023-03-26T18:27:21;57;48;38
33948;PMS7003;20229;49.856;19.030;2023-03-26T18:32:36;71;59;52
33948;PMS7003;20229;49.856;19.030;2023-03-26T18:38:04;68;55;49
33948;PMS7003;20229;49.856;19.030;2023-03-26T18:43:19;78;68;62
33948;PMS7003;20229;49.856;19.030;2023-03-26T18:48:34;84;75;71
33948;PMS7003;20229;49.856;19.030;2023-03-26T18:53:49;79;68;63
33948;PMS7003;20229;49.856;19.030;2023-03-26T19:04:34;78;65;53
33948;PMS7003;20229;49.856;19.030;2023-03-26T19:09:50;81;73;63
33948;PMS7003;20229;49.856;19.030;2023-03-26T19:15:10;67;56;50
33948;PMS7003;20229;49.856;19.030;2023-03-26T19:20:31;62;50;40
33948;PMS7003;20229;49.856;19.030;2023-03-26T19:25:53;53;44;36
33948;PMS7003;20229;49.856;19.030;2023-03-26T19:36:34;32;31;25
33948;PMS7003;20229;49.856;19.030;2023-03-26T19:41:59;39;34;27
33948;PMS7003;20229;49.856;19.030;2023-03-26T19:47:18;36;33;26
33948;PMS7003;20229;49.856;19.030;2023-03-26T19:52:35;36;32;25
33948;PMS7003;20229;49.856;19.030;2023-03-26T19:57:51;27;26;21
33948;PMS7003;20229;49.856;19.030;2023-03-26T20:03:06;45;37;30
33948;PMS7003;20229;49.856;19.030;2023-03-26T20:08:20;32;29;23
33948;PMS7003;20229;49.856;19.030;2023-03-26T20:13:39;30;26;21
33948;PMS7003;20229;49.856;19.030;2023-03-26T20:18:53;27;24;19
33948;PMS7003;20229;49.856;19.030;2023-03-26T20:24:14;22;19;13
33948;PMS7003;20229;49.856;19.030;2023-03-26T20:29:30;62;51;41
33948;PMS7003;20229;49.856;19.030;2023-03-26T20:34:45;55;45;37
33948;PMS7003;20229;49.856;19.030;2023-03-26T20:40:02;62;54;48
33948;PMS7003;20229;49.856;19.030;2023-03-26T20:45:20;70;65;56
33948;PMS7003;20229;49.856;19.030;2023-03-26T20:50:36;77;75;65
33948;PMS7003;20229;49.856;19.030;2023-03-26T20:55:54;85;83;72
33948;PMS7003;20229;49.856;19.030;2023-03-26T21:01:09;99;96;85
33948;PMS7003;20229;49.856;19.030;2023-03-26T21:06:23;104;102;89
33948;PMS7003;20229;49.856;19.030;2023-03-26T21:11:40;94;86;71
33948;PMS7003;20229;49.856;19.030;2023-03-26T21:17:02;99;94;84
33948;PMS7003;20229;49.856;19.030;2023-03-26T21:33:10;69;62;54
33948;PMS7003;20229;49.856;19.030;2023-03-26T21:38:24;78;74;65
33948;PMS7003;20229;49.856;19.030;2023-03-26T21:43:38;80;76;67
33948;PMS7003;20229;49.856;19.030;2023-03-26T21:48:52;75;70;62
33948;PMS7003;20229;49.856;19.030;2023-03-26T21:59:38;69;62;54
33948;PMS7003;20229;49.856;19.030;2023-03-26T22:05:03;60;48;36
33948;PMS7003;20229;49.856;19.030;2023-03-26T22:10:23;80;77;68
33948;PMS7003;20229;49.856;19.030;2023-03-26T22:15:37;79;73;65
33948;PMS7003;20229;49.856;19.030;2023-03-26T22:20:50;78;72;64
33948;PMS7003;20229;49.856;19.030;2023-03-26T22:26:05;73;65;57
33948;PMS7003;20229;49.856;19.030;2023-03-26T22:31:19;59;47;38
33948;PMS7003;20229;49.856;19.030;2023-03-26T22:36:35;65;55;50
33948;PMS7003;20229;49.856;19.030;2023-03-26T22:41:49;60;48;39
33948;PMS7003;20229;49.856;19.030;2023-03-26T22:47:03;58;47;37
33948;PMS7003;20229;49.856;19.030;2023-03-26T22:52:17;52;43;35
33948;PMS7003;20229;49.856;19.030;2023-03-26T22:57:30;54;44;35
33948;PMS7003;20229;49.856;19.030;2023-03-26T23:02:45;56;46;40
33948;PMS7003;20229;49.856;19.030;2023-03-26T23:07:59;59;48;44
33948;PMS7003;20229;49.856;19.030;2023-03-26T23:13:13;76;73;67
33948;PMS7003;20229;49.856;19.030;2023-03-26T23:18:27;72;70;67
33948;PMS7003;20229;49.856;19.030;2023-03-26T23:23:41;56;46;41
33948;PMS7003;20229;49.856;19.030;2023-03-26T23:28:55;62;52;47
33948;PMS7003;20229;49.856;19.030;2023-03-26T23:34:09;60;50;46
33948;PMS7003;20229;49.856;19.030;2023-03-26T23:39:28;59;48;45
33948;PMS7003;20229;49.856;19.030;2023-03-26T23:44:45;68;65;60
33948;PMS7003;20229;49.856;19.030;2023-03-26T23:49:59;69;59;55
33948;PMS7003;20229;49.856;19.030;2023-03-26T23:55:16;62;53;49
